Noodle, Texas
Current Conditions -  °F | °C
As of 3:58 AM on Thursday 18 Dec 2014 (Local Time) from KDYS Reporting Station
Clear Clear  
Wind Chill: 43°   Ceiling: Unl
Heat Index: 43°   Visibility: 10mi
Dew Point: 38°   Wind: 3mph
Humidity: 83%   Direction: 190°S
Pressure: 30.04"   Gusts: NA
Location:  32.3913°N, 100.009°W
Report Text: KDYS 180958Z AUTO 19003KT 10SM CLR 06/03 A3004 RMK AO2 SLP167 T00600033
Loading
Personal Weather Stations






























Interactive Weather Map New forecast layout! Learn more

10-Day Weather Forecast

Advertisements
Track Severe Weather on mobile